HNL weather

Daniel K Inouye International Airport
Honolulu, Hawaii, United States

Public forecast

Using degrees Fahrenheit for public forecast. Weather courtesy of forecast.io.

Current aviation weather report (METAR) for Daniel K Inouye International Airport

Retrieved 2019/10/17 03:53 UTC (7 minutes ago):

PHNL 170353Z 05013KT 10SM FEW025 FEW042 SCT055 28/20 A2997

Aviation forecast (TAF) for Daniel K Inouye International Airport

Retrieved 2019-10-17 00:27 UTC (4 hours ago):

TAF PHNL 162324Z 1700/1806 05011KT P6SM VCSH SCT020 BKN035 TEMPO 1700/1702 3SM -TSRA SCT015 BKN022CB FM170600 07008KT P6SM VCSH SCT025 BKN035 FM172000 07012G20KT P6SM VCSH FEW025 SCT035 FM180400 06008KT P6SM FEW030 SCT040